This is the latest recevied weather packets stored in our database for station/object S56IAR-13. If no packets are shown the sender has not sent any weather packets the latest 10 day(s).
| Time | Temp. | Humidity | Pressure | Rain* | Wind** | Luminosity | Snow |
|---|---|---|---|---|---|---|---|
| 1777551134 | 12.22° C | 41% | 972.1 hPa | 0 mm | - | 588 W/m² | - |
| 1777550105 | 11.67° C | 39% | 972.2 hPa | 0 mm | - | 380 W/m² | - |
| 1777549803 | 11.11° C | 38% | 972 hPa | 0 mm | - | 351 W/m² | - |
| 1777549204 | 11.11° C | 42% | 972.2 hPa | 0 mm | - | 342 W/m² | - |
| 1777544704 | 10.56° C | 48% | 972.7 hPa | 0 mm | - | 748 W/m² | - |
| 1777543505 | 10.56° C | 43% | 972.6 hPa | 0 mm | - | 731 W/m² | - |
| 1777542305 | 10° C | 41% | 973 hPa | 0 mm | - | 711 W/m² | - |
| 1777541105 | 9.44° C | 42% | 973 hPa | 0 mm | - | 683 W/m² | - |
| 1777538704 | 8.33° C | 42% | 973.1 hPa | 0 mm | - | 636 W/m² | - |
| 1777537805 | 8.33° C | 43% | 972.7 hPa | 0 mm | - | 609 W/m² | - |
| 1777537035 | 8.33° C | 53% | 973 hPa | 0 mm | - | 583 W/m² | - |
| 1777536604 | 7.78° C | 52% | 973 hPa | 0 mm | - | 578 W/m² | - |
| 1777535703 | 6.67° C | 63% | 973.1 hPa | 0 mm | - | 543 W/m² | - |
| 1777534505 | 6.11° C | 66% | 973 hPa | 0 mm | - | 507 W/m² | - |
| 1777533005 | 3.33° C | 80% | 973.2 hPa | 0 mm | - | 55 W/m² | - |
| 1777532703 | 2.78° C | 92% | 972.9 hPa | 0 mm | - | 50 W/m² | - |
| 1777531203 | 1.67° C | 99% | 972.7 hPa | 0 mm | - | 43 W/m² | - |
| 1777530905 | 1.67° C | 99% | 972.9 hPa | 0 mm | - | 41 W/m² | - |
| 1777529703 | 1.11° C | 99% | 973 hPa | 0 mm | - | 39 W/m² | - |
| 1777529405 | 1.11° C | 99% | 973.1 hPa | 0 mm | - | 39 W/m² | - |
| 1777526105 | 0° C | 99% | 972.7 hPa | 0 mm | - | 31 W/m² | - |
| 1777523705 | -0.56° C | 99% | 972.4 hPa | 0 mm | - | 20 W/m² | - |
| 1777523104 | -0.56° C | 99% | 972.3 hPa | 0 mm | - | 16 W/m² | - |
| 1777521305 | -0.56° C | 99% | 972.1 hPa | 0 mm | - | 3 W/m² | - |
| 1777520704 | 0° C | 99% | 972.2 hPa | 0 mm | - | 1 W/m² | - |
* Rain latest hour (hover to see other rain measurements)
** Current wind speed in m/s (hover to see current wind gust speed)